Ana Sayfa
METAR-TAF:

METAR-TAF

Havaalanları :

Miri, Malezya

Enlem: 04-20N, Boylam: 113-59E, yükseklik: 17 m

Güncel hava durumu gözlemi

Rapor saat 03:00 UTC de 55 dakika önce yapıldı.
Rüzgar güney/güneybatıdan 9 kt, güney/güneydoğu ve batı arasında değişken
Sıcaklık 30°C
Nem 66%
Basınç 1009 hPa
Görüş mesafesi 10 km veya daha fazla
1600 ft yükseklikte az bulutlu
15000 ft yükseklikte parçalı çok bulutlu

METAR: WBGR 160300Z 21009KT 160V260 9999 FEW016 BKN150 30/23 Q1009

Saat: 11:55 (03:55 UTC)

Tahmin

Rapor saat 23:00 UTC de 4 saat ve 55 dakika önce yapıldı.
Ayın 16'si saat 00 UTC'den ayın 17'si saat 00 UTC'ye kadar geçerli Tahmin
Rüzgar güneybatıdan 5 kt
Görüş mesafesi 10 km veya daha fazla
1600 ft yükseklikte az bulutlu

TAF: WBGR 152300Z 1600/1700 23005KT 9999 FEW016

4.000'den fazla havaalanı için hava durumu gözlemleri ve tahminleri (METAR ve TAF raporları).

Kullanılabilir istasyonlar harita üzerinde sarı ve kırmızı noktalarla gösterilir.

İstasyonun adını görmek için fareyi noktanın üzerinde gezdirin.

Sonrasında hava gözlem ve tahminlerini görmek için tıklayın.

Haritayı değiştirmek için: yaklaştırmak için siyah artı işaretli yeşil düğmeye ve uzaklaştırmak için de eksi işaretli düğmeye hızla tıklayın; bitişik haritalar için yeşil okları kullanın.


METAR-TAF: